ADDS TAF Data INFO
IDs: Format: Raw Decoded Include METARs

Data at: 0008 UTC 27 Jun 2017

Region: TOP
KATL 262336Z 2700/2806 32010KT P6SM FEW070 SCT250
  FM270300 34005KT P6SM SCT250
  FM271000 01005KT P6SM SCT250
  FM271500 35008KT P6SM FEW050 SCT250
  FM271900 33010KT P6SM SCT050 SCT150
  FM280300 02005KT P6SM SKC


KBOS 262327Z 2700/2806 22010KT P6SM SCT070 SCT100
  FM271700 20011G22KT P6SM VCSH BKN060
  FM280000 21009KT P6SM VCSH BKN060
  FM280200 23007KT P6SM BKN060


KBWI 262335Z 2700/2806 20005KT P6SM BKN080
  FM270400 25004KT P6SM SCT080
  FM270600 31004KT P6SM SCT080
  FM271200 VRB03KT P6SM BKN140
  FM271500 28010G17KT P6SM BKN080
  FM272300 28007KT P6SM SCT070


KCLE 262331Z 2700/2806 26010KT P6SM VCSH BKN045 OVC120
  FM270300 22006KT P6SM SCT050 BKN150
  FM270500 22008KT P6SM SCT035 BKN150
  TEMPO 2705/2709 SCT008 BKN015
  FM271400 29010KT P6SM FEW025 SCT045
  FM272100 28010KT P6SM BKN050
  FM280200 23008KT P6SM FEW045 SCT140


KCLT 262322Z 2700/2724 23003KT P6SM FEW070 BKN200
  FM270700 36006KT P6SM SCT060 BKN120
  FM272000 01005KT P6SM SCT070


KCVG 262323Z 2700/2806 29006KT P6SM SCT060 BKN100
  FM270500 29004KT P6SM FEW060
  FM271400 31007KT P6SM SCT035
  FM280000 31004KT P6SM FEW050
  FM280400 VRB03KT P6SM FEW250


KDCA 262335Z 2700/2724 20007KT P6SM SCT080
  FM270500 29005KT P6SM SCT080
  FM271100 31004KT P6SM BKN150
  FM271600 27010G17KT P6SM SCT070
  FM272300 28008KT P6SM SCT070


KDEN 262320Z 2700/2806 05011KT P6SM SCT080
  FM270200 12010KT P6SM SCT080
  FM270600 16015KT P6SM SCT200
  FM270900 20012KT P6SM SCT200
  FM271600 25011KT P6SM SCT120 BKN200
  FM272000 29014KT P6SM BKN120
  FM280100 33010KT P6SM SCT120


KDFW 262338Z 2700/2806 11006KT P6SM SCT035 BKN300
  FM271800 14009KT P6SM BKN045 BKN300


KDTW 262333Z 2700/2806 27014G22KT P6SM BKN070
  TEMPO 2700/2703 -SHRA
  FM270300 29009KT P6SM SCT070
  FM270500 27007KT P6SM BKN045
  FM271200 29011KT P6SM SKC
  FM271700 30012KT P6SM BKN060
  FM272300 27008KT P6SM SCT050


KEWR 262336Z 2700/2806 23010KT P6SM FEW070
  FM270200 23005KT P6SM SKC
  FM271100 19003KT P6SM BKN070
  FM271400 22008KT P6SM BKN070
  FM271800 25012G20KT P6SM SCT060 BKN200
  FM272300 28012G20KT P6SM FEW060 SCT200
  FM280200 29009KT P6SM FEW050


KFLL 262335Z 2700/2724 13012KT P6SM SCT030 SCT045
  FM270200 VRB05KT P6SM SCT030 SCT250
  FM271300 14010KT P6SM SCT030 SCT250
  FM271900 15010KT P6SM VCTS SCT030CB SCT250


KIAD 262335Z 2700/2806 23006KT P6SM SCT080
  FM270500 30004KT P6SM SCT080
  FM271100 VRB03KT P6SM BKN140
  FM271500 28010G17KT P6SM SCT070
  FM280400 31004KT P6SM FEW070


KIAH 262328Z 2700/2806 10010KT P6SM VCSH SCT030 BKN250
  FM270100 09005KT P6SM SCT025 BKN250
  FM271500 06006KT P6SM SCT030 BKN250
  FM271800 09008KT P6SM VCTS SCT040CB BKN250
  FM272300 12008KT P6SM BKN250


KJFK 262336Z 2700/2806 19015KT P6SM FEW070
  FM270200 20010KT P6SM SKC
  FM270400 22005KT P6SM FEW070
  FM271100 19007KT P6SM BKN070
  FM271800 22013G20KT P6SM SCT060 BKN200
  FM272300 26013G20KT P6SM FEW060 SCT200
  FM280200 28010KT P6SM FEW050


KLAS 262320Z 2700/2724 22018G28KT P6SM SKC
  FM270800 24015G22KT P6SM SKC
  FM271000 20011KT P6SM SKC
  FM271500 VRB05KT P6SM SKC
  FM271700 08006KT P6SM SKC
  FM272300 22012G20KT P6SM SKC


KLAX 262334Z 2700/2806 25014G20KT P6SM SKC
  FM270300 25010KT P6SM SKC
  FM270700 VRB03KT P6SM SKC
  FM271100 VRB03KT P6SM SCT006
  FM271700 26008KT P6SM SKC
  FM272000 26014KT P6SM SKC
  FM280500 23006KT P6SM BKN010


KLGA 262336Z 2700/2724 18012KT P6SM FEW070
  FM270200 21008KT P6SM SKC
  FM271100 17007KT P6SM BKN070
  FM271800 22012G20KT P6SM SCT060 BKN200
  FM272300 26012G20KT P6SM FEW060 SCT200


KMCO 262339Z 2700/2724 VRB03KT P6SM SCT080 BKN150 OVC200
  FM270400 17003KT P6SM SCT080 BKN250
  FM271400 25005KT P6SM SCT025 SCT080 BKN250
  FM271800 VRB06KT P6SM VCTS BKN035CB BKN060
  TEMPO 2719/2722 3SM TSRA BKN025CB


KMDW 262340Z 2700/2724 33014G21KT P6SM SCT050 BKN080
  FM270100 33009KT P6SM SCT080
  FM270400 29006KT P6SM FEW250
  FM271700 26009KT P6SM FEW050 SCT250


KMEM 262327Z 2700/2724 33008KT P6SM SCT050 SCT250
  FM270100 VRB03KT P6SM BKN100
  FM270800 03004KT P6SM VCSH BKN060
  FM271200 05005KT P6SM BKN060
  FM271600 04007KT P6SM SCT060


KMIA 262335Z 2700/2724 14010KT P6SM SCT030 SCT250
  FM270100 VRB03KT P6SM SCT030 SCT250
  FM271300 14008KT P6SM SCT030 SCT250
  FM271900 14009KT P6SM VCTS SCT030CB SCT250


KMSP 262336Z 2700/2806 34009KT P6SM SCT060
  FM270100 30005KT P6SM SKC
  FM270600 24003KT P6SM SKC
  FM271400 21010KT P6SM SCT250
  FM271800 18014G22KT P6SM BKN250


KORD 262340Z 2700/2806 35014G21KT P6SM SCT050 BKN080
  FM270100 34009KT P6SM SCT080
  FM270400 29006KT P6SM FEW250
  FM271700 26009KT P6SM FEW050 SCT250


KPDX 262324Z 2700/2724 31009KT P6SM FEW040 BKN250
  FM271100 30004KT P6SM SCT015 OVC025
  FM271800 30005KT P6SM BKN050
  FM272100 30006KT P6SM BKN100


KPHL 262340Z 2700/2724 24010KT P6SM SCT070
  FM270200 20004KT P6SM SCT070
  FM271400 28006KT P6SM BKN100
  FM271700 27012G20KT P6SM BKN100
  FM272300 28005KT P6SM SCT070


KPHX 262330Z 2700/2724 27014G25KT P6SM FEW250
  FM270300 27010KT P6SM FEW200
  FM271200 12005KT P6SM SKC
  FM271900 25010KT P6SM SKC
  TEMPO 2720/2724 25015G22KT


KPIT 262324Z 2700/2806 24007KT P6SM BKN100
  FM270500 23003KT P6SM VCSH BKN110
  FM271100 25006KT P6SM SCT060


KSAN 262336Z 2700/2806 33006KT P6SM SKC
  FM270800 VRB04KT P6SM VCFG SCT002
  FM271500 VRB04KT P6SM FEW004
  FM271900 29010KT P6SM SKC
  FM280200 VRB04KT P6SM SCT005
  FM280500 VRB04KT 5SM BR BKN005


KSEA 262320Z 2700/2806 23010KT P6SM FEW035 BKN130 BKN200
  FM270600 19008KT P6SM SCT130 BKN200
  FM270900 19006KT P6SM OVC018
  FM272000 24007KT P6SM FEW035 SCT200
  FM280000 31006KT P6SM SCT200


KSFO 262338Z 2700/2806 29018G24KT P6SM FEW018
  FM270300 26015KT P6SM FEW018
  TEMPO 2703/2707 BKN015
  FM270700 27007KT P6SM OVC013
  FM271800 27011KT P6SM FEW020
  FM272100 28015G23KT P6SM FEW020


KSLC 262333Z 2700/2806 17012G20KT P6SM VCSH SCT100 SCT150
  FM270400 14010KT P6SM FEW100 SCT200
  FM271600 30010KT P6SM VCSH SCT100 BKN150
  FM280300 14008KT P6SM SCT080 SCT120


KSTL 262320Z 2700/2806 28007KT P6SM BKN100
  FM270500 VRB03KT P6SM SCT200
  FM271600 10004KT P6SM FEW050


KTPA 262320Z 2700/2724 29006KT P6SM VCTS SCT020CB BKN090
  FM270200 VRB03KT P6SM SCT020
  FM271500 23006KT P6SM SCT035
  FM271900 27008KT P6SM VCTS SCT035CB
  FM272300 36006KT P6SM VCSH SCT035



Page loaded:  00:08 UTC  |   05:08 PM Pacific  |   06:08 PM Mountain  |   07:08 PM Central  |   08:08 PM Eastern

 

ADVISORIES

FORECASTS

FORECASTS

OBSERVATIONS

USER TOOLS

ABOUT US